Time;durP1;ratioP1;P1;durP2;ratioP2;P2;SDS_P1;SDS_P2;PMS_P1;PMS_P2;Temp;Humidity;BMP_temperature;BMP_pressure;BME280_temperature;BME280_humidity;BME280_pressure;Samples;Min_cycle;Max_cycle;Signal;HPM_P1;HPM_P2
2023/12/15 00:02:28;;;;;;;20.48;14.25;;;;;;;;;;10277791;28;20098;-75
2023/12/15 00:07:25;;;;;;;19.52;13.82;;;;;;;;;;10302930;28;20052;-75
2023/12/15 00:12:21;;;;;;;26.92;14.82;;;;;;;;;;10290365;28;20052;-75
2023/12/15 00:17:18;;;;;;;20.40;14.10;;;;;;;;;;10280625;28;20095;-75
2023/12/15 00:22:14;;;;;;;20.27;14.65;;;;;;;;;;10291053;28;20428;-75
2023/12/15 00:27:10;;;;;;;24.60;15.43;;;;;;;;;;10288176;28;20061;-74
2023/12/15 00:32:07;;;;;;;24.33;16.05;;;;;;;;;;10301816;28;20048;-74
2023/12/15 00:37:03;;;;;;;27.00;15.90;;;;;;;;;;10305694;28;20060;-74
2023/12/15 00:42:00;;;;;;;23.17;14.80;;;;;;;;;;10293357;28;20064;-75
2023/12/15 00:46:56;;;;;;;23.88;15.25;;;;;;;;;;10307422;28;20626;-75
2023/12/15 00:51:52;;;;;;;24.77;14.82;;;;;;;;;;10307703;28;20052;-75
2023/12/15 00:56:49;;;;;;;25.85;16.58;;;;;;;;;;10308560;28;20060;-75
2023/12/15 01:01:45;;;;;;;23.38;16.45;;;;;;;;;;10296583;28;20450;-73
2023/12/15 01:06:42;;;;;;;36.70;17.63;;;;;;;;;;10294740;28;20053;-74
2023/12/15 01:11:38;;;;;;;23.92;16.77;;;;;;;;;;10302314;28;20076;-74
2023/12/15 01:16:34;;;;;;;27.33;17.48;;;;;;;;;;10305278;28;20057;-75
2023/12/15 01:21:31;;;;;;;28.15;16.20;;;;;;;;;;10309969;28;20508;-74
2023/12/15 01:26:27;;;;;;;27.63;18.00;;;;;;;;;;10302952;28;20044;-74
2023/12/15 01:31:23;;;;;;;26.45;17.05;;;;;;;;;;10298314;28;20049;-74
2023/12/15 01:36:20;;;;;;;29.88;17.38;;;;;;;;;;10301975;28;20048;-74
2023/12/15 01:41:16;;;;;;;27.30;17.33;;;;;;;;;;10302542;28;20520;-73
2023/12/15 01:46:13;;;;;;;23.23;17.25;;;;;;;;;;10303157;28;20053;-75
2023/12/15 01:51:10;;;;;;;36.38;17.95;;;;;;;;;;10304982;28;20057;-73
2023/12/15 01:56:10;;;;;;;33.60;17.20;;;;;;;;;;10303081;28;20059;-74
2023/12/15 02:01:07;;;;;;;29.73;16.90;;;;;;;;;;10306483;28;20132;-74
2023/12/15 02:06:03;;;;;;;28.05;16.70;;;;;;;;;;10290696;28;20045;-74
2023/12/15 02:11:00;;;;;;;23.25;15.90;;;;;;;;;;10278518;28;20040;-73
2023/12/15 02:15:57;;;;;;;31.20;17.45;;;;;;;;;;10298303;28;20048;-74
2023/12/15 02:20:53;;;;;;;28.13;16.77;;;;;;;;;;10300835;28;20036;-74
2023/12/15 02:25:49;;;;;;;25.83;17.27;;;;;;;;;;10309404;28;20052;-73
2023/12/15 02:30:46;;;;;;;31.35;17.65;;;;;;;;;;10301001;28;20565;-73
2023/12/15 02:35:42;;;;;;;28.17;17.25;;;;;;;;;;10296746;28;20045;-73
2023/12/15 02:40:39;;;;;;;25.30;16.02;;;;;;;;;;10302896;28;20397;-74
2023/12/15 02:45:36;;;;;;;26.27;16.42;;;;;;;;;;10297360;28;20056;-73
2023/12/15 02:50:32;;;;;;;26.08;16.95;;;;;;;;;;10299693;28;20049;-74
2023/12/15 02:55:29;;;;;;;27.15;15.65;;;;;;;;;;10313060;28;20593;-74
2023/12/15 03:00:25;;;;;;;28.23;15.77;;;;;;;;;;10302447;28;20060;-74
2023/12/15 03:05:21;;;;;;;29.17;17.27;;;;;;;;;;10279974;28;20052;-74
2023/12/15 03:10:18;;;;;;;26.55;17.15;;;;;;;;;;10309385;28;20052;-74
2023/12/15 03:15:14;;;;;;;24.67;16.10;;;;;;;;;;10313061;28;20055;-73
2023/12/15 03:20:10;;;;;;;25.80;16.05;;;;;;;;;;10305444;28;20107;-74
2023/12/15 03:25:07;;;;;;;25.70;16.30;;;;;;;;;;10312195;28;20045;-73
2023/12/15 03:30:03;;;;;;;24.95;15.48;;;;;;;;;;10303319;28;20105;-74
2023/12/15 03:35:00;;;;;;;31.65;17.20;;;;;;;;;;10293311;28;20511;-74
2023/12/15 03:39:57;;;;;;;35.08;18.85;;;;;;;;;;10313974;28;20048;-74
2023/12/15 03:44:53;;;;;;;28.60;17.60;;;;;;;;;;10287052;28;20098;-74
2023/12/15 03:49:49;;;;;;;30.50;17.55;;;;;;;;;;10307955;28;20063;-74
2023/12/15 03:54:45;;;;;;;34.72;18.02;;;;;;;;;;10300637;28;20044;-73
2023/12/15 03:59:42;;;;;;;31.55;20.52;;;;;;;;;;10295488;28;20057;-73
2023/12/15 04:04:38;;;;;;;28.63;19.33;;;;;;;;;;10295286;28;20064;-74
2023/12/15 04:09:34;;;;;;;32.78;19.77;;;;;;;;;;10306920;28;20049;-74
2023/12/15 04:14:34;;;;;;;35.65;18.63;;;;;;;;;;10301499;28;20052;-74
2023/12/15 04:19:31;;;;;;;32.00;20.33;;;;;;;;;;10300227;28;20048;-74
2023/12/15 04:24:27;;;;;;;32.58;19.70;;;;;;;;;;10302152;28;20058;-74
2023/12/15 04:29:24;;;;;;;33.25;20.27;;;;;;;;;;10295270;28;20072;-73
2023/12/15 04:34:20;;;;;;;31.75;19.23;;;;;;;;;;10295238;28;20084;-74
2023/12/15 04:39:16;;;;;;;35.35;20.83;;;;;;;;;;10290456;28;20060;-74
2023/12/15 04:44:13;;;;;;;33.53;20.95;;;;;;;;;;10308273;28;20064;-75
2023/12/15 04:49:09;;;;;;;35.22;19.05;;;;;;;;;;10299599;28;20702;-74
2023/12/15 04:54:05;;;;;;;33.67;20.20;;;;;;;;;;10307399;28;20474;-74
2023/12/15 04:59:02;;;;;;;37.88;21.65;;;;;;;;;;10304710;28;20049;-74
2023/12/15 05:03:59;;;;;;;35.25;20.48;;;;;;;;;;10303263;28;20127;-74
2023/12/15 05:08:55;;;;;;;39.55;22.05;;;;;;;;;;10305121;28;20048;-74
2023/12/15 05:13:52;;;;;;;34.28;21.08;;;;;;;;;;10302446;28;20053;-74
2023/12/15 05:18:48;;;;;;;38.47;21.30;;;;;;;;;;10310924;28;20127;-74
2023/12/15 05:23:44;;;;;;;37.58;21.73;;;;;;;;;;10306939;28;20103;-74
2023/12/15 05:28:41;;;;;;;34.95;20.80;;;;;;;;;;10309343;28;20419;-74
2023/12/15 05:33:37;;;;;;;31.63;20.52;;;;;;;;;;10284702;28;20068;-74
2023/12/15 05:38:34;;;;;;;38.33;20.90;;;;;;;;;;10297378;28;20045;-74
2023/12/15 05:43:30;;;;;;;33.35;19.50;;;;;;;;;;10304502;28;20045;-73
2023/12/15 05:48:26;;;;;;;33.45;20.20;;;;;;;;;;10297626;28;20048;-74
2023/12/15 05:53:23;;;;;;;37.60;22.65;;;;;;;;;;10307608;28;20044;-74
2023/12/15 05:58:19;;;;;;;36.60;21.60;;;;;;;;;;10297989;28;20047;-74
2023/12/15 06:03:17;;;;;;;33.15;21.42;;;;;;;;;;10304067;28;20049;-74
2023/12/15 06:08:13;;;;;;;34.38;21.02;;;;;;;;;;10300384;28;20049;-74
2023/12/15 06:13:10;;;;;;;32.03;20.40;;;;;;;;;;10289146;28;20048;-74
2023/12/15 06:18:06;;;;;;;40.17;22.73;;;;;;;;;;10294764;28;20045;-75
2023/12/15 06:23:03;;;;;;;47.25;23.08;;;;;;;;;;10299893;28;21677;-73
2023/12/15 06:28:00;;;;;;;46.90;21.85;;;;;;;;;;10304373;28;20049;-74
2023/12/15 06:32:56;;;;;;;43.55;23.17;;;;;;;;;;10305809;28;20497;-74
2023/12/15 06:37:52;;;;;;;44.17;22.98;;;;;;;;;;10312739;28;20072;-74
2023/12/15 06:42:49;;;;;;;46.45;23.35;;;;;;;;;;10302086;28;20055;-74
2023/12/15 06:47:45;;;;;;;53.75;25.35;;;;;;;;;;10299447;28;20045;-74
2023/12/15 06:52:42;;;;;;;49.58;24.92;;;;;;;;;;10298645;28;20052;-74
2023/12/15 06:57:38;;;;;;;59.10;26.27;;;;;;;;;;10299286;28;20051;-73
2023/12/15 07:02:35;;;;;;;56.15;24.75;;;;;;;;;;10299142;28;20045;-74
2023/12/15 07:07:31;;;;;;;53.17;24.38;;;;;;;;;;10301644;28;20132;-74
2023/12/15 07:12:27;;;;;;;54.70;26.08;;;;;;;;;;10293524;28;20076;-74
2023/12/15 07:17:24;;;;;;;60.85;25.83;;;;;;;;;;10293625;28;20044;-74
2023/12/15 07:22:20;;;;;;;59.88;26.08;;;;;;;;;;10296565;28;20095;-74
2023/12/15 07:27:17;;;;;;;71.25;26.80;;;;;;;;;;10296262;28;20053;-74
2023/12/15 07:32:13;;;;;;;72.05;28.55;;;;;;;;;;10294098;28;20060;-74
2023/12/15 07:37:09;;;;;;;61.75;26.45;;;;;;;;;;10295804;28;20063;-74
2023/12/15 07:42:11;;;;;;;66.90;28.52;;;;;;;;;;10297077;28;20419;-74
2023/12/15 07:47:07;;;;;;;72.65;29.15;;;;;;;;;;10299411;28;20102;-75
2023/12/15 07:52:04;;;;;;;71.68;28.67;;;;;;;;;;10292402;28;20049;-75
2023/12/15 07:57:00;;;;;;;75.95;30.63;;;;;;;;;;10305095;28;20051;-75
2023/12/15 08:01:56;;;;;;;83.55;30.55;;;;;;;;;;10307083;28;20120;-75
2023/12/15 08:06:53;;;;;;;72.78;27.65;;;;;;;;;;10300333;28;20465;-75
2023/12/15 08:11:49;;;;;;;77.28;29.30;;;;;;;;;;10296159;28;20075;-74
2023/12/15 08:16:45;;;;;;;65.65;29.23;;;;;;;;;;10301327;28;20442;-75
2023/12/15 08:21:42;;;;;;;75.50;30.42;;;;;;;;;;10298133;28;20101;-75
2023/12/15 08:26:39;;;;;;;95.40;32.25;;;;;;;;;;10288436;28;20060;-75
2023/12/15 08:31:37;;;;;;;91.25;32.17;;;;;;;;;;10302147;28;20090;-75
2023/12/15 08:36:34;;;;;;;78.07;31.33;;;;;;;;;;10309678;28;20057;-74
2023/12/15 08:41:30;;;;;;;73.55;30.73;;;;;;;;;;10301022;28;20136;-75
2023/12/15 08:46:27;;;;;;;68.72;28.05;;;;;;;;;;10286926;28;20045;-73
2023/12/15 08:51:23;;;;;;;73.18;28.10;;;;;;;;;;10296368;28;20083;-73
2023/12/15 08:56:19;;;;;;;59.95;26.63;;;;;;;;;;10304513;28;20052;-74
2023/12/15 09:01:16;;;;;;;57.28;22.90;;;;;;;;;;10297116;28;20049;-75
2023/12/15 09:06:12;;;;;;;59.58;24.77;;;;;;;;;;10294444;28;20509;-74
2023/12/15 09:11:24;;;;;;;55.67;25.35;;;;;;;;;;10297744;28;20557;-75
2023/12/15 09:16:20;;;;;;;49.63;25.25;;;;;;;;;;10301892;28;20078;-75
2023/12/15 09:21:16;;;;;;;55.20;24.40;;;;;;;;;;10295765;28;20052;-75
2023/12/15 09:26:13;;;;;;;47.72;22.52;;;;;;;;;;10296223;28;20472;-75
2023/12/15 09:31:11;;;;;;;44.90;23.08;;;;;;;;;;10304072;28;20052;-75
2023/12/15 09:36:08;;;;;;;48.85;22.27;;;;;;;;;;10310973;28;20048;-73
2023/12/15 09:41:04;;;;;;;52.83;23.30;;;;;;;;;;10307044;28;20102;-75
2023/12/15 09:46:01;;;;;;;55.38;23.20;;;;;;;;;;10306867;28;20138;-74
2023/12/15 09:51:01;;;;;;;59.22;24.77;;;;;;;;;;10303335;28;20068;-75
2023/12/15 09:55:57;;;;;;;59.65;25.48;;;;;;;;;;10298515;28;20059;-75
2023/12/15 10:00:53;;;;;;;63.50;27.30;;;;;;;;;;10305239;28;20094;-75
2023/12/15 10:05:50;;;;;;;54.38;25.60;;;;;;;;;;10303377;28;20048;-75
2023/12/15 10:10:46;;;;;;;77.47;26.58;;;;;;;;;;10300259;28;20106;-75
2023/12/15 10:15:43;;;;;;;68.82;26.73;;;;;;;;;;10316019;28;20098;-75
2023/12/15 10:20:40;;;;;;;63.63;26.40;;;;;;;;;;10311970;28;20056;-74
2023/12/15 10:25:36;;;;;;;76.72;29.70;;;;;;;;;;10315683;28;20164;-75
2023/12/15 10:30:33;;;;;;;73.28;28.55;;;;;;;;;;10309264;28;20055;-75
2023/12/15 10:35:31;;;;;;;72.00;25.92;;;;;;;;;;10304971;28;20075;-75
2023/12/15 10:40:27;;;;;;;68.25;28.73;;;;;;;;;;10292290;28;20053;-74
2023/12/15 10:45:24;;;;;;;62.10;25.45;;;;;;;;;;10302396;28;20056;-73
2023/12/15 10:50:21;;;;;;;69.70;26.58;;;;;;;;;;10308427;28;20455;-74
2023/12/15 10:55:20;;;;;;;53.13;24.35;;;;;;;;;;10295396;28;20083;-75
2023/12/15 11:00:17;;;;;;;57.35;25.95;;;;;;;;;;10299758;28;20057;-74
2023/12/15 11:05:15;;;;;;;57.50;24.27;;;;;;;;;;10291336;28;20504;-74
2023/12/15 11:10:16;;;;;;;54.33;22.58;;;;;;;;;;10303148;28;20057;-74
2023/12/15 11:15:13;;;;;;;55.10;23.08;;;;;;;;;;10304761;28;20504;-74
2023/12/15 11:20:11;;;;;;;49.08;21.65;;;;;;;;;;10295371;28;20107;-74
2023/12/15 11:25:15;;;;;;;45.33;22.83;;;;;;;;;;10286680;28;20080;-74
2023/12/15 11:30:48;;;;;;;52.20;24.35;;;;;;;;;;10290877;28;20528;-75
2023/12/15 11:35:51;;;;;;;47.05;21.48;;;;;;;;;;10222366;28;20523;-73
2023/12/15 11:40:50;;;;;;;;;;;;;;;;;;10299147;28;20132;-74
2023/12/15 11:45:48;;;;;;;57.53;21.45;;;;;;;;;;10290467;28;19920;-74
2023/12/15 11:50:45;;;;;;;44.85;22.55;;;;;;;;;;10293135;28;20075;-73
2023/12/15 11:55:43;;;;;;;44.92;19.52;;;;;;;;;;10302590;28;20055;-74
2023/12/15 12:00:39;;;;;;;44.95;19.85;;;;;;;;;;10286940;28;20055;-74
2023/12/15 12:05:35;;;;;;;42.47;20.10;;;;;;;;;;10289443;28;20528;-74
2023/12/15 12:10:32;;;;;;;43.80;18.33;;;;;;;;;;10304322;28;20049;-74
2023/12/15 12:15:28;;;;;;;47.05;19.70;;;;;;;;;;10292638;28;20402;-74
2023/12/15 12:20:28;;;;;;;45.42;22.95;;;;;;;;;;10305406;28;20102;-73
2023/12/15 12:25:25;;;;;;;46.72;19.38;;;;;;;;;;10285825;28;20049;-74
2023/12/15 12:30:21;;;;;;;47.55;20.05;;;;;;;;;;10277337;28;20059;-74
2023/12/15 12:35:18;;;;;;;50.85;19.02;;;;;;;;;;10294149;28;20049;-74
2023/12/15 12:40:14;;;;;;;38.75;19.05;;;;;;;;;;10300060;28;20427;-73
2023/12/15 12:45:11;;;;;;;48.30;20.88;;;;;;;;;;10286595;28;20057;-74
2023/12/15 12:50:09;;;;;;;30.65;18.10;;;;;;;;;;10300181;28;20048;-74
2023/12/15 12:55:06;;;;;;;32.50;17.30;;;;;;;;;;10304435;28;20778;-74
2023/12/15 13:00:06;;;;;;;46.15;17.85;;;;;;;;;;10295079;28;20045;-74
2023/12/15 13:05:06;;;;;;;33.85;15.48;;;;;;;;;;10274501;28;20041;-74
2023/12/15 13:10:03;;;;;;;39.22;16.65;;;;;;;;;;10292685;28;20152;-75
2023/12/15 13:15:00;;;;;;;39.75;16.92;;;;;;;;;;10287474;28;20471;-75
2023/12/15 13:19:56;;;;;;;38.25;17.55;;;;;;;;;;10309492;28;20116;-75
2023/12/15 13:24:53;;;;;;;33.85;14.98;;;;;;;;;;10281954;28;20704;-76
2023/12/15 13:29:55;;;;;;;;;;;;;;;;;;10307715;28;20059;-74
2023/12/15 13:34:52;;;;;;;40.83;15.95;;;;;;;;;;10306463;28;19925;-74
2023/12/15 13:39:48;;;;;;;33.05;16.98;;;;;;;;;;10298903;28;20496;-74
2023/12/15 13:44:45;;;;;;;40.65;16.35;;;;;;;;;;10292943;28;20080;-74
2023/12/15 13:49:41;;;;;;;38.47;15.07;;;;;;;;;;10301769;28;20059;-75
2023/12/15 13:54:38;;;;;;;30.25;13.23;;;;;;;;;;10305627;28;20538;-74
2023/12/15 13:59:34;;;;;;;33.17;15.35;;;;;;;;;;10305891;28;20083;-73
2023/12/15 14:04:30;;;;;;;37.67;14.00;;;;;;;;;;10302725;28;20542;-75
2023/12/15 14:09:27;;;;;;;46.58;16.67;;;;;;;;;;10280188;28;20060;-74
2023/12/15 14:14:24;;;;;;;31.80;13.77;;;;;;;;;;10307405;28;20102;-75
2023/12/15 14:19:21;;;;;;;39.40;12.65;;;;;;;;;;10302232;28;20048;-74
2023/12/15 14:24:18;;;;;;;31.13;13.27;;;;;;;;;;10308077;28;20040;-75
2023/12/15 14:29:15;;;;;;;26.92;12.93;;;;;;;;;;10305420;28;20071;-75
2023/12/15 14:34:11;;;;;;;33.33;13.30;;;;;;;;;;10301712;28;20083;-75
2023/12/15 14:39:07;;;;;;;34.55;14.35;;;;;;;;;;10300363;28;20051;-75
2023/12/15 14:44:04;;;;;;;30.20;11.93;;;;;;;;;;10305382;28;20424;-75
2023/12/15 14:49:01;;;;;;;38.47;13.07;;;;;;;;;;10306894;28;20052;-74
2023/12/15 14:53:58;;;;;;;30.35;13.00;;;;;;;;;;10300134;28;20103;-75
2023/12/15 14:58:54;;;;;;;37.08;12.77;;;;;;;;;;10297516;28;20075;-75
2023/12/15 15:03:51;;;;;;;25.77;12.35;;;;;;;;;;10295425;28;20044;-75
2023/12/15 15:08:47;;;;;;;36.53;13.00;;;;;;;;;;10293452;28;20049;-75
2023/12/15 15:13:43;;;;;;;35.53;12.65;;;;;;;;;;10305384;28;20048;-75
2023/12/15 15:18:40;;;;;;;37.25;14.38;;;;;;;;;;10302577;28;20055;-75
2023/12/15 15:23:40;;;;;;;37.42;12.73;;;;;;;;;;10304255;28;20140;-75
2023/12/15 15:28:37;;;;;;;44.40;14.07;;;;;;;;;;10307741;28;20045;-75
2023/12/15 15:33:33;;;;;;;33.47;12.32;;;;;;;;;;10293655;28;20055;-75
2023/12/15 15:38:29;;;;;;;32.03;12.32;;;;;;;;;;10302130;28;20087;-75
2023/12/15 15:43:26;;;;;;;29.70;12.18;;;;;;;;;;10305399;28;20041;-75
2023/12/15 15:48:22;;;;;;;28.05;11.57;;;;;;;;;;10307948;28;20056;-76
2023/12/15 15:53:22;;;;;;;32.38;11.80;;;;;;;;;;10288490;28;20071;-75
2023/12/15 15:58:18;;;;;;;25.13;11.65;;;;;;;;;;10292602;28;20509;-76
2023/12/15 16:03:14;;;;;;;27.40;10.98;;;;;;;;;;10284862;28;20508;-76
2023/12/15 16:08:11;;;;;;;25.30;10.82;;;;;;;;;;10297691;28;20044;-74
2023/12/15 16:13:07;;;;;;;26.67;10.57;;;;;;;;;;10303436;28;20563;-75
2023/12/15 16:18:03;;;;;;;32.38;12.10;;;;;;;;;;10285368;28;20508;-75
2023/12/15 16:23:01;;;;;;;26.75;9.85;;;;;;;;;;10294626;28;20044;-76
2023/12/15 16:27:57;;;;;;;27.05;10.93;;;;;;;;;;10306557;28;20102;-76
2023/12/15 16:32:54;;;;;;;34.72;10.68;;;;;;;;;;10295936;28;20052;-75
2023/12/15 16:37:51;;;;;;;28.48;9.50;;;;;;;;;;10305631;28;20068;-76
2023/12/15 16:42:47;;;;;;;28.92;9.65;;;;;;;;;;10297389;28;20044;-75
2023/12/15 16:47:44;;;;;;;29.55;9.70;;;;;;;;;;10303456;28;20068;-76
2023/12/15 16:52:41;;;;;;;21.27;9.63;;;;;;;;;;10290245;28;20048;-75
2023/12/15 16:57:39;;;;;;;36.40;10.63;;;;;;;;;;10310217;28;20041;-76
2023/12/15 17:02:35;;;;;;;22.40;9.13;;;;;;;;;;10316114;28;20041;-76
2023/12/15 17:07:32;;;;;;;32.63;10.32;;;;;;;;;;10300442;28;20420;-74
2023/12/15 17:12:28;;;;;;;21.58;8.65;;;;;;;;;;10308531;28;20059;-75
2023/12/15 17:17:24;;;;;;;20.83;8.98;;;;;;;;;;10298260;28;20051;-75
2023/12/15 17:22:21;;;;;;;25.88;8.82;;;;;;;;;;10302170;28;20057;-74
2023/12/15 17:27:17;;;;;;;29.83;9.95;;;;;;;;;;10293112;28;20143;-76
2023/12/15 17:32:15;;;;;;;35.78;9.25;;;;;;;;;;10300901;28;20052;-75
2023/12/15 17:37:11;;;;;;;32.25;9.07;;;;;;;;;;10310500;28;20060;-74
2023/12/15 17:42:07;;;;;;;23.77;9.27;;;;;;;;;;10303619;28;20056;-75
2023/12/15 17:47:04;;;;;;;23.95;8.60;;;;;;;;;;10296496;28;20045;-76
2023/12/15 17:52:01;;;;;;;22.75;8.52;;;;;;;;;;10293324;28;20106;-76
2023/12/15 17:56:57;;;;;;;21.23;8.27;;;;;;;;;;10309084;28;20144;-76
2023/12/15 18:01:54;;;;;;;34.83;9.50;;;;;;;;;;10297721;28;20045;-76
2023/12/15 18:06:51;;;;;;;33.90;8.80;;;;;;;;;;10287195;28;20045;-75
2023/12/15 18:11:47;;;;;;;29.70;9.43;;;;;;;;;;10307107;28;20049;-75
2023/12/15 18:16:43;;;;;;;35.85;8.75;;;;;;;;;;10310192;28;20238;-76
2023/12/15 18:21:40;;;;;;;22.95;8.98;;;;;;;;;;10306345;28;20049;-76
2023/12/15 18:26:36;;;;;;;23.23;8.18;;;;;;;;;;10306909;28;20052;-76
2023/12/15 18:31:33;;;;;;;24.40;9.75;;;;;;;;;;10296596;28;20136;-76
2023/12/15 18:36:29;;;;;;;29.73;8.07;;;;;;;;;;10296470;28;20509;-76
2023/12/15 18:41:27;;;;;;;26.48;8.93;;;;;;;;;;10294833;28;20516;-74
2023/12/15 18:46:23;;;;;;;22.15;7.85;;;;;;;;;;10298367;28;20056;-76
2023/12/15 18:51:21;;;;;;;26.27;7.97;;;;;;;;;;10285754;28;20067;-76
2023/12/15 18:56:17;;;;;;;24.63;9.75;;;;;;;;;;10290423;28;20103;-76
2023/12/15 19:01:16;;;;;;;18.35;7.15;;;;;;;;;;10309310;28;20048;-76
2023/12/15 19:06:14;;;;;;;25.65;7.43;;;;;;;;;;10299413;28;20056;-76
2023/12/15 19:11:12;;;;;;;22.58;7.97;;;;;;;;;;10270003;28;20471;-75
2023/12/15 19:16:08;;;;;;;25.98;7.28;;;;;;;;;;10313680;28;20061;-75
2023/12/15 19:21:04;;;;;;;24.55;8.63;;;;;;;;;;10301921;28;20512;-75
2023/12/15 19:26:01;;;;;;;34.20;8.52;;;;;;;;;;10306130;28;20052;-76
2023/12/15 19:30:59;;;;;;;29.70;7.40;;;;;;;;;;10306982;28;20048;-76
2023/12/15 19:35:56;;;;;;;25.75;8.40;;;;;;;;;;10303906;28;20465;-76
2023/12/15 19:40:52;;;;;;;24.98;6.90;;;;;;;;;;10306398;28;20049;-75
2023/12/15 19:45:48;;;;;;;24.85;7.88;;;;;;;;;;10296994;28;20040;-75
2023/12/15 19:50:45;;;;;;;25.23;6.90;;;;;;;;;;10272831;28;20084;-76
2023/12/15 19:55:41;;;;;;;17.23;6.70;;;;;;;;;;10299886;28;20160;-76
2023/12/15 20:00:37;;;;;;;22.15;7.45;;;;;;;;;;10306377;28;20067;-76
2023/12/15 20:05:34;;;;;;;20.63;7.03;;;;;;;;;;10301369;28;20044;-76
2023/12/15 20:10:30;;;;;;;18.35;6.07;;;;;;;;;;10278623;28;20055;-76
2023/12/15 20:15:26;;;;;;;19.95;6.75;;;;;;;;;;10296664;28;20849;-75
2023/12/15 20:20:22;;;;;;;17.77;6.10;;;;;;;;;;10303970;28;20064;-76
2023/12/15 20:25:19;;;;;;;12.50;6.53;;;;;;;;;;10311744;28;20063;-76
2023/12/15 20:30:15;;;;;;;18.70;6.05;;;;;;;;;;10284607;28;20055;-76
2023/12/15 20:35:12;;;;;;;18.52;6.50;;;;;;;;;;10293074;28;20105;-76
2023/12/15 20:40:09;;;;;;;24.45;7.57;;;;;;;;;;10299867;28;20056;-76
2023/12/15 20:45:06;;;;;;;22.50;6.22;;;;;;;;;;10296966;28;20049;-75
2023/12/15 20:50:03;;;;;;;17.88;5.50;;;;;;;;;;10302983;28;20405;-76
2023/12/15 20:54:59;;;;;;;22.48;7.63;;;;;;;;;;10308981;28;21278;-76
2023/12/15 20:59:56;;;;;;;15.20;6.10;;;;;;;;;;10283349;28;20044;-75
2023/12/15 21:04:52;;;;;;;18.85;7.10;;;;;;;;;;10287220;28;20049;-76
2023/12/15 21:09:49;;;;;;;20.42;6.25;;;;;;;;;;10295494;28;20087;-75
2023/12/15 21:14:48;;;;;;;17.05;7.07;;;;;;;;;;10303036;28;20059;-75
2023/12/15 21:19:44;;;;;;;11.95;6.78;;;;;;;;;;10302771;28;20040;-76
2023/12/15 21:24:41;;;;;;;19.73;7.20;;;;;;;;;;10301154;28;20515;-76
2023/12/15 21:29:38;;;;;;;21.70;7.22;;;;;;;;;;10300365;28;20051;-76
2023/12/15 21:34:34;;;;;;;17.98;6.30;;;;;;;;;;10306725;28;20103;-76
2023/12/15 21:39:31;;;;;;;18.60;6.57;;;;;;;;;;10289188;28;20048;-75
2023/12/15 21:44:27;;;;;;;24.05;7.55;;;;;;;;;;10314062;28;20160;-76
2023/12/15 21:49:26;;;;;;;18.38;7.05;;;;;;;;;;10310357;28;20516;-76
2023/12/15 21:54:22;;;;;;;18.77;8.18;;;;;;;;;;10297693;28;20397;-76
2023/12/15 21:59:18;;;;;;;29.75;7.38;;;;;;;;;;10283504;28;20055;-76
2023/12/15 22:04:15;;;;;;;21.55;7.75;;;;;;;;;;10300654;28;20084;-76
2023/12/15 22:09:11;;;;;;;24.23;8.05;;;;;;;;;;10296461;28;20056;-76
2023/12/15 22:14:07;;;;;;;20.85;7.55;;;;;;;;;;10306817;28;20049;-75
2023/12/15 22:19:04;;;;;;;24.77;7.93;;;;;;;;;;10288641;28;20052;-76
2023/12/15 22:24:00;;;;;;;18.27;7.70;;;;;;;;;;10299188;28;20413;-76
2023/12/15 22:28:56;;;;;;;32.53;8.48;;;;;;;;;;10305131;28;20463;-76
2023/12/15 22:33:53;;;;;;;23.23;8.07;;;;;;;;;;10302330;28;20048;-76
2023/12/15 22:38:49;;;;;;;24.00;8.40;;;;;;;;;;10300968;28;20051;-75
2023/12/15 22:43:45;;;;;;;26.77;8.25;;;;;;;;;;10299470;28;20076;-76
2023/12/15 22:48:42;;;;;;;21.98;8.95;;;;;;;;;;10299531;28;20103;-76
2023/12/15 22:53:39;;;;;;;17.30;9.55;;;;;;;;;;10288753;28;20098;-75
2023/12/15 22:58:35;;;;;;;22.15;9.45;;;;;;;;;;10302037;28;20059;-75
2023/12/15 23:03:31;;;;;;;16.35;8.57;;;;;;;;;;10297186;28;20049;-75
2023/12/15 23:08:28;;;;;;;28.77;9.45;;;;;;;;;;10302829;28;20053;-75
2023/12/15 23:13:24;;;;;;;27.88;9.90;;;;;;;;;;10303117;28;20053;-75
2023/12/15 23:18:22;;;;;;;27.60;9.68;;;;;;;;;;10306534;28;20059;-75
2023/12/15 23:23:18;;;;;;;29.13;10.30;;;;;;;;;;10302316;28;20143;-75
2023/12/15 23:28:15;;;;;;;31.80;8.93;;;;;;;;;;10296948;28;20056;-76
2023/12/15 23:33:15;;;;;;;34.50;10.38;;;;;;;;;;10295134;28;20099;-75
2023/12/15 23:38:12;;;;;;;29.15;10.38;;;;;;;;;;10303384;28;20048;-76
2023/12/15 23:43:08;;;;;;;22.75;9.40;;;;;;;;;;10306917;28;20052;-75
2023/12/15 23:48:04;;;;;;;23.90;10.25;;;;;;;;;;10287858;28;20048;-76
2023/12/15 23:53:01;;;;;;;22.73;9.32;;;;;;;;;;10304279;28;20045;-75
2023/12/15 23:57:57;;;;;;;25.67;10.50;;;;;;;;;;10299188;28;20049;-75
